Time,TemperatureF,DewpointF,PressureIn,WindDirection,WindDirectionDegrees,WindSpeedMPH,WindSpeedGustMPH,Humidity,HourlyPrecipIn,Conditions,Clouds,dailyrainin,SoftwareType,DateUTC
2013-02-24 00:00:00,43.9,43.1,29.83,SSE,162,0.0,0.0,97,0.00,RA,,0.00,WeatherDisplay:10.37,2013-02-24 05:00:00,
2013-02-24 00:05:00,43.9,43.1,29.83,SSE,166,0.0,0.0,97,0.00,RA,,0.00,WeatherDisplay:10.37,2013-02-24 05:05:00,
2013-02-24 00:10:00,44.0,43.2,29.84,SW,229,0.0,0.0,97,0.00,CLR,,0.00,WeatherDisplay:10.37,2013-02-24 05:10:00,
2013-02-24 00:15:00,44.0,43.2,29.84,NNW,336,0.0,0.0,97,0.00,CLR,,0.00,WeatherDisplay:10.37,2013-02-24 05:15:00,
2013-02-24 00:20:00,44.0,43.2,29.83,NNW,339,0.0,0.0,97,0.00,CLR,,0.00,WeatherDisplay:10.37,2013-02-24 05:20:00,
2013-02-24 00:25:00,43.9,43.1,29.84,WNW,288,1.0,1.0,97,0.00,CLR,,0.00,WeatherDisplay:10.37,2013-02-24 05:25:00,
2013-02-24 00:30:00,43.9,43.1,29.84,WNW,288,0.0,0.0,97,0.00,CLR,,0.00,WeatherDisplay:10.37,2013-02-24 05:30:00,
2013-02-24 00:35:00,43.9,43.1,29.83,WNW,288,0.0,0.0,97,0.00,CLR,,0.00,WeatherDisplay:10.37,2013-02-24 05:35:00,
2013-02-24 00:40:00,43.9,43.1,29.84,WNW,287,0.0,0.0,97,0.00,CLR,,0.00,WeatherDisplay:10.37,2013-02-24 05:40:00,
2013-02-24 00:45:00,43.9,43.1,29.84,WNW,284,0.0,0.0,97,0.00,CLR,,0.00,WeatherDisplay:10.37,2013-02-24 05:45:00,
2013-02-24 00:50:00,43.9,43.1,29.84,WNW,284,0.0,0.0,97,0.00,CLR,,0.00,WeatherDisplay:10.37,2013-02-24 05:50:00,
2013-02-24 00:55:00,43.9,43.1,29.85,WSW,252,1.1,1.1,97,0.00,CLR,,0.00,WeatherDisplay:10.37,2013-02-24 05:55:00,
2013-02-24 01:00:00,44.0,43.2,29.84,WSW,245,1.1,1.1,97,0.00,CLR,,0.00,WeatherDisplay:10.37,2013-02-24 06:00:00,
2013-02-24 01:05:00,44.0,43.2,29.84,SW,236,1.1,1.1,97,0.00,CLR,,0.00,WeatherDisplay:10.37,2013-02-24 06:05:00,
2013-02-24 01:10:00,43.9,43.1,29.84,WSW,255,1.1,0.0,97,0.00,CLR,,0.00,WeatherDisplay:10.37,2013-02-24 06:10:00,
2013-02-24 01:15:00,43.9,43.1,29.84,WSW,244,0.0,0.0,97,0.00,CLR,,0.00,WeatherDisplay:10.37,2013-02-24 06:15:00,
2013-02-24 01:20:00,43.9,43.1,29.84,SSW,211,1.1,1.1,97,0.00,CLR,,0.00,WeatherDisplay:10.37,2013-02-24 06:20:00,
2013-02-24 01:25:00,43.9,43.1,29.83,SSW,211,1.1,0.0,97,0.00,CLR,,0.00,WeatherDisplay:10.37,2013-02-24 06:25:00,
2013-02-24 01:30:00,43.9,43.1,29.83,SSW,212,0.0,0.0,97,0.00,CLR,,0.00,WeatherDisplay:10.37,2013-02-24 06:30:00,
2013-02-24 01:35:00,43.9,43.1,29.83,SSW,212,1.1,0.0,97,0.00,CLR,,0.00,WeatherDisplay:10.37,2013-02-24 06:35:00,
2013-02-24 01:40:00,43.9,43.1,29.83,SSW,212,0.0,0.0,97,0.00,CLR,,0.00,WeatherDisplay:10.37,2013-02-24 06:40:00,
2013-02-24 01:45:00,43.8,43.0,29.83,SW,214,1.1,1.1,97,0.00,CLR,,0.00,WeatherDisplay:10.37,2013-02-24 06:45:00,
2013-02-24 01:50:00,43.8,43.0,29.83,SW,214,0.0,0.0,97,0.00,CLR,,0.00,WeatherDisplay:10.37,2013-02-24 06:50:00,
2013-02-24 01:55:00,43.8,43.0,29.83,SW,220,1.0,1.0,97,0.00,CLR,,0.00,WeatherDisplay:10.37,2013-02-24 06:55:00,
2013-02-24 02:00:00,43.7,42.9,29.83,NW,322,2.0,2.0,97,0.00,CLR,,0.00,WeatherDisplay:10.37,2013-02-24 07:00:00,
2013-02-24 02:05:00,43.7,42.9,29.83,NW,324,0.0,0.0,97,0.00,CLR,,0.00,WeatherDisplay:10.37,2013-02-24 07:05:00,
2013-02-24 02:10:00,43.7,42.9,29.83,NW,311,1.1,0.0,97,0.01,RA,,0.01,WeatherDisplay:10.37,2013-02-24 07:10:00,
2013-02-24 02:15:00,43.7,42.9,29.82,West,266,1.1,1.1,97,0.01,RA,,0.01,WeatherDisplay:10.37,2013-02-24 07:15:00,
2013-02-24 02:20:00,43.7,42.9,29.81,West,264,0.0,0.0,97,0.01,,,0.01,WeatherDisplay:10.37,2013-02-24 07:20:00,
2013-02-24 02:25:00,43.6,42.8,29.81,West,264,0.0,0.0,97,0.01,CLR,,0.01,WeatherDisplay:10.37,2013-02-24 07:25:00,
2013-02-24 02:30:00,43.6,42.8,29.81,NW,326,1.1,0.0,97,0.01,CLR,,0.01,WeatherDisplay:10.37,2013-02-24 07:30:00,
2013-02-24 02:35:00,43.6,42.8,29.81,NW,326,0.0,0.0,97,0.02,RA,,0.02,WeatherDisplay:10.37,2013-02-24 07:35:00,
2013-02-24 02:40:00,43.6,42.8,29.80,West,260,0.0,0.0,97,0.02,RA,,0.02,WeatherDisplay:10.37,2013-02-24 07:40:00,
2013-02-24 02:45:00,43.6,42.8,29.80,West,260,0.0,0.0,97,0.02,CLR,,0.02,WeatherDisplay:10.37,2013-02-24 07:45:00,
2013-02-24 02:50:00,43.6,42.8,29.80,West,274,2.3,2.3,97,0.02,CLR,,0.02,WeatherDisplay:10.37,2013-02-24 07:50:00,
2013-02-24 02:55:00,43.6,42.8,29.80,WSW,253,1.1,0.0,97,0.04,RA,,0.06,WeatherDisplay:10.37,2013-02-24 07:55:00,
2013-02-24 03:00:00,43.6,42.8,29.79,WSW,252,0.0,0.0,97,0.12,RA,,0.12,WeatherDisplay:10.37,2013-02-24 08:00:00,
2013-02-24 03:05:00,43.5,42.7,29.79,NNW,329,1.1,1.1,97,0.13,RA,,0.13,WeatherDisplay:10.37,2013-02-24 08:05:00,
2013-02-24 03:10:00,43.5,42.7,29.80,WSW,238,2.3,2.3,97,0.12,RA,,0.13,WeatherDisplay:10.37,2013-02-24 08:10:00,
2013-02-24 03:15:00,43.5,42.7,29.80,SW,227,1.1,1.1,97,0.12,CLR,,0.13,WeatherDisplay:10.37,2013-02-24 08:15:00,
2013-02-24 03:20:00,43.5,42.7,29.79,SW,226,0.0,0.0,97,0.13,RA,,0.14,WeatherDisplay:10.37,2013-02-24 08:20:00,
2013-02-24 03:25:00,43.5,42.7,29.80,North,353,1.1,1.1,97,0.14,RA,,0.15,WeatherDisplay:10.37,2013-02-24 08:25:00,
2013-02-24 03:30:00,43.5,42.7,29.80,WSW,255,1.1,1.1,97,0.16,RA,,0.18,WeatherDisplay:10.37,2013-02-24 08:30:00,
2013-02-24 03:35:00,43.5,42.7,29.79,WSW,246,1.1,1.1,97,0.17,RA,,0.19,WeatherDisplay:10.37,2013-02-24 08:35:00,
2013-02-24 03:40:00,43.5,42.7,29.81,WNW,284,2.3,2.3,97,0.17,RA,,0.19,WeatherDisplay:10.37,2013-02-24 08:40:00,
2013-02-24 03:45:00,43.5,42.7,29.78,North,349,3.5,3.5,97,0.22,RA,,0.25,WeatherDisplay:10.37,2013-02-24 08:45:00,
2013-02-24 03:50:00,43.5,42.7,29.81,WSW,245,2.3,2.3,97,0.25,RA,,0.27,WeatherDisplay:10.37,2013-02-24 08:50:00,
2013-02-24 03:55:00,43.6,43.1,29.80,NNE,18,1.1,1.6,98,0.24,RA,,0.28,WeatherDisplay:10.37,2013-02-24 08:55:00,
2013-02-24 04:00:00,43.6,43.1,29.81,WSW,242,1.1,1.1,98,0.16,RA,,0.28,WeatherDisplay:10.37,2013-02-24 09:00:00,
2013-02-24 04:06:00,43.6,43.1,29.81,NW,307,2.3,2.3,98,0.15,CLR,,0.28,WeatherDisplay:10.37,2013-02-24 09:06:00,
2013-02-24 04:11:00,43.6,43.1,29.80,West,277,1.1,1.1,98,0.15,CLR,,0.28,WeatherDisplay:10.37,2013-02-24 09:11:00,
2013-02-24 04:16:00,43.7,43.2,29.80,West,262,0.0,0.0,98,0.15,CLR,,0.28,WeatherDisplay:10.37,2013-02-24 09:16:00,
2013-02-24 04:21:00,43.8,43.3,29.81,NNW,336,0.0,0.0,98,0.14,CLR,,0.28,WeatherDisplay:10.37,2013-02-24 09:21:00,
2013-02-24 04:26:00,43.8,43.3,29.81,NW,326,0.0,0.0,98,0.13,CLR,,0.28,WeatherDisplay:10.37,2013-02-24 09:26:00,
2013-02-24 04:31:00,43.9,43.4,29.81,WSW,248,0.0,0.0,98,0.10,CLR,,0.28,WeatherDisplay:10.37,2013-02-24 09:31:00,
2013-02-24 04:36:00,44.0,43.5,29.80,SSW,197,0.0,0.0,98,0.09,CLR,,0.28,WeatherDisplay:10.37,2013-02-24 09:36:00,
2013-02-24 04:41:00,44.0,43.5,29.80,ESE,117,0.0,0.0,98,0.09,CLR,,0.28,WeatherDisplay:10.37,2013-02-24 09:41:00,
2013-02-24 04:46:00,44.1,43.6,29.79,ESE,117,0.0,0.0,98,0.03,CLR,,0.28,WeatherDisplay:10.37,2013-02-24 09:46:00,
2013-02-24 04:51:00,44.1,43.6,29.79,ESE,117,0.0,0.0,98,0.01,CLR,,0.28,WeatherDisplay:10.37,2013-02-24 09:51:00,
2013-02-24 04:56:00,44.2,43.7,29.80,ESE,117,0.0,0.0,98,0.00,CLR,,0.28,WeatherDisplay:10.37,2013-02-24 09:56:00,
2013-02-24 05:01:00,44.2,43.7,29.81,WNW,293,0.0,0.0,98,0.00,CLR,,0.28,WeatherDisplay:10.37,2013-02-24 10:01:00,
2013-02-24 05:06:00,44.3,43.8,29.81,WNW,293,0.0,0.0,98,0.00,CLR,,0.28,WeatherDisplay:10.37,2013-02-24 10:06:00,
2013-02-24 05:11:00,44.3,43.8,29.81,WNW,291,0.0,0.0,98,0.00,CLR,,0.28,WeatherDisplay:10.37,2013-02-24 10:11:00,
2013-02-24 05:16:00,44.3,43.8,29.81,WNW,291,0.0,0.0,98,0.00,CLR,,0.28,WeatherDisplay:10.37,2013-02-24 10:16:00,
2013-02-24 05:21:00,44.3,43.8,29.82,WNW,291,0.0,0.0,98,0.00,CLR,,0.28,WeatherDisplay:10.37,2013-02-24 10:21:00,
2013-02-24 05:26:00,44.3,43.8,29.82,WNW,293,0.0,0.0,98,0.00,CLR,,0.28,WeatherDisplay:10.37,2013-02-24 10:26:00,
2013-02-24 05:31:00,44.2,43.7,29.82,WNW,293,0.0,0.0,98,0.00,CLR,,0.28,WeatherDisplay:10.37,2013-02-24 10:31:00,
2013-02-24 05:36:00,44.2,43.7,29.82,WNW,290,0.0,0.0,98,0.00,CLR,,0.28,WeatherDisplay:10.37,2013-02-24 10:36:00,
2013-02-24 05:41:00,44.1,43.6,29.82,SW,229,0.0,0.0,98,0.00,CLR,,0.28,WeatherDisplay:10.37,2013-02-24 10:41:00,
2013-02-24 05:46:00,44.1,43.6,29.83,West,266,0.0,0.0,98,0.00,CLR,,0.28,WeatherDisplay:10.37,2013-02-24 10:46:00,
2013-02-24 05:51:00,44.1,43.6,29.83,WSW,239,1.1,1.1,98,0.00,CLR,,0.28,WeatherDisplay:10.37,2013-02-24 10:51:00,
2013-02-24 05:56:00,44.1,43.6,29.83,WSW,245,0.0,0.0,98,0.00,CLR,,0.28,WeatherDisplay:10.37,2013-02-24 10:56:00,
2013-02-24 06:01:00,44.0,43.5,29.83,SSW,195,0.0,0.0,98,0.00,CLR,,0.28,WeatherDisplay:10.37,2013-02-24 11:01:00,
2013-02-24 06:06:00,44.0,43.5,29.84,SW,233,2.3,2.3,98,0.00,CLR,,0.28,WeatherDisplay:10.37,2013-02-24 11:06:00,
2013-02-24 06:11:00,44.0,43.5,29.84,NW,309,0.0,0.0,98,0.00,CLR,,0.28,WeatherDisplay:10.37,2013-02-24 11:11:00,
2013-02-24 06:16:00,44.0,43.5,29.84,NW,309,0.0,0.0,98,0.00,CLR,,0.28,WeatherDisplay:10.37,2013-02-24 11:16:00,
2013-02-24 06:21:00,44.0,43.5,29.84,NE,39,1.1,0.0,98,0.00,CLR,,0.28,WeatherDisplay:10.37,2013-02-24 11:21:00,
2013-02-24 06:26:00,44.0,43.5,29.85,WNW,291,0.0,0.0,98,0.00,CLR,,0.28,WeatherDisplay:10.37,2013-02-24 11:26:00,
2013-02-24 06:31:00,44.0,43.5,29.85,West,269,2.3,0.0,98,0.00,CLR,,0.28,WeatherDisplay:10.37,2013-02-24 11:31:00,
2013-02-24 06:36:00,44.1,43.6,29.85,West,269,0.0,0.0,98,0.00,CLR,,0.28,WeatherDisplay:10.37,2013-02-24 11:36:00,
2013-02-24 06:41:00,44.0,43.5,29.85,West,269,1.1,1.1,98,0.00,CLR,,0.28,WeatherDisplay:10.37,2013-02-24 11:41:00,
2013-02-24 06:46:00,44.0,43.5,29.85,West,269,0.0,0.0,98,0.00,CLR,,0.28,WeatherDisplay:10.37,2013-02-24 11:46:00,
2013-02-24 06:51:00,44.0,43.5,29.85,West,269,1.1,0.0,98,0.00,CLR,,0.28,WeatherDisplay:10.37,2013-02-24 11:51:00,
2013-02-24 06:56:00,44.0,43.5,29.85,West,269,0.0,0.0,98,0.00,CLR,,0.28,WeatherDisplay:10.37,2013-02-24 11:56:00,
2013-02-24 07:01:00,44.1,43.6,29.86,West,269,0.0,0.0,98,0.00,CLR,,0.28,WeatherDisplay:10.37,2013-02-24 12:01:00,
2013-02-24 07:06:00,44.1,43.6,29.86,West,269,0.0,0.0,98,0.00,CLR,,0.28,WeatherDisplay:10.37,2013-02-24 12:06:00,
2013-02-24 07:11:00,44.1,43.6,29.86,WSW,243,1.1,1.1,98,0.00,CLR,,0.28,WeatherDisplay:10.37,2013-02-24 12:11:00,
2013-02-24 07:16:00,44.2,43.7,29.86,WSW,245,1.1,0.0,98,0.00,CLR,,0.28,WeatherDisplay:10.37,2013-02-24 12:16:00,
2013-02-24 07:21:00,44.2,43.7,29.86,WSW,249,0.0,0.0,98,0.00,CLR,,0.28,WeatherDisplay:10.37,2013-02-24 12:21:00,
2013-02-24 07:26:00,44.2,43.7,29.86,WSW,249,0.0,0.0,98,0.00,CLR,,0.28,WeatherDisplay:10.37,2013-02-24 12:26:00,
2013-02-24 07:31:00,44.2,43.7,29.86,West,262,1.1,0.0,98,0.00,CLR,,0.28,WeatherDisplay:10.37,2013-02-24 12:31:00,
2013-02-24 07:36:00,44.3,43.8,29.86,West,262,0.0,0.0,98,0.00,CLR,,0.28,WeatherDisplay:10.37,2013-02-24 12:36:00,
2013-02-24 07:42:00,44.4,43.9,29.87,West,262,0.0,0.0,98,0.00,CLR,,0.28,WeatherDisplay:10.37,2013-02-24 12:42:00,
2013-02-24 07:47:00,44.3,43.8,29.88,WSW,253,0.0,0.0,98,0.00,CLR,,0.28,WeatherDisplay:10.37,2013-02-24 12:47:00,
2013-02-24 07:52:00,44.4,43.9,29.88,West,280,1.1,0.0,98,0.00,CLR,,0.28,WeatherDisplay:10.37,2013-02-24 12:52:00,
2013-02-24 07:57:00,44.5,44.0,29.88,West,278,0.0,0.0,98,0.00,CLR,,0.28,WeatherDisplay:10.37,2013-02-24 12:57:00,
2013-02-24 08:02:00,44.5,43.7,29.88,SW,236,1.1,1.1,97,0.00,CLR,,0.28,WeatherDisplay:10.37,2013-02-24 13:02:00,
2013-02-24 08:07:00,44.6,43.8,29.88,WSW,240,2.3,2.3,97,0.00,CLR,,0.28,WeatherDisplay:10.37,2013-02-24 13:07:00,
2013-02-24 08:12:00,44.9,44.1,29.89,West,278,1.1,0.0,97,0.00,CLR,,0.28,WeatherDisplay:10.37,2013-02-24 13:12:00,
2013-02-24 08:17:00,45.2,44.4,29.89,West,276,0.0,0.0,97,0.00,CLR,,0.28,WeatherDisplay:10.37,2013-02-24 13:17:00,
2013-02-24 08:22:00,45.5,44.7,29.89,WSW,239,2.3,2.3,97,0.00,CLR,,0.28,WeatherDisplay:10.37,2013-02-24 13:22:00,
2013-02-24 08:27:00,45.8,45.0,29.90,NNW,338,2.3,2.3,97,0.00,CLR,,0.28,WeatherDisplay:10.37,2013-02-24 13:27:00,
2013-02-24 08:32:00,46.3,45.5,29.90,SW,221,1.1,0.0,97,0.00,CLR,,0.28,WeatherDisplay:10.37,2013-02-24 13:32:00,
2013-02-24 08:37:00,46.6,45.5,29.90,East,82,1.1,1.1,96,0.00,CLR,,0.28,WeatherDisplay:10.37,2013-02-24 13:37:00,
2013-02-24 08:42:00,47.0,45.9,29.91,South,175,2.3,2.3,96,0.00,CLR,,0.28,WeatherDisplay:10.37,2013-02-24 13:42:00,
2013-02-24 08:47:00,47.5,46.1,29.91,NE,45,1.1,1.1,95,0.00,CLR,,0.28,WeatherDisplay:10.37,2013-02-24 13:47:00,
2013-02-24 08:52:00,47.9,46.3,29.92,North,6,2.3,2.3,94,0.00,CLR,,0.28,WeatherDisplay:10.37,2013-02-24 13:52:00,
2013-02-24 08:57:00,48.3,46.4,29.92,SW,226,0.0,0.0,93,0.00,CLR,,0.28,WeatherDisplay:10.37,2013-02-24 13:57:00,
2013-02-24 09:02:00,48.7,46.5,29.92,NW,314,1.1,1.1,92,0.00,CLR,,0.28,WeatherDisplay:10.37,2013-02-24 14:02:00,
2013-02-24 09:07:00,49.1,46.6,29.92,NNW,333,0.0,0.0,91,0.00,CLR,,0.28,WeatherDisplay:10.37,2013-02-24 14:07:00,
2013-02-24 09:12:00,49.4,46.6,29.92,North,349,2.3,2.3,90,0.00,CLR,,0.28,WeatherDisplay:10.37,2013-02-24 14:12:00,
2013-02-24 09:17:00,49.8,47.3,29.92,SSE,148,2.3,2.3,91,0.00,CLR,,0.28,WeatherDisplay:10.37,2013-02-24 14:17:00,
2013-02-24 09:22:00,50.4,47.3,29.92,WSW,256,1.1,1.1,89,0.00,CLR,,0.28,WeatherDisplay:10.37,2013-02-24 14:22:00,
2013-02-24 09:27:00,50.8,47.4,29.92,West,266,2.3,2.3,88,0.00,CLR,,0.28,WeatherDisplay:10.37,2013-02-24 14:27:00,
2013-02-24 09:32:00,51.2,47.5,29.92,SSE,167,0.0,0.0,87,0.00,CLR,,0.28,WeatherDisplay:10.37,2013-02-24 14:32:00,
2013-02-24 09:37:00,51.9,47.8,29.92,NW,309,1.1,1.1,86,0.00,CLR,,0.28,WeatherDisplay:10.37,2013-02-24 14:37:00,
2013-02-24 09:42:00,52.1,47.1,29.91,North,349,3.5,3.5,83,0.00,CLR,,0.28,WeatherDisplay:10.37,2013-02-24 14:42:00,
2013-02-24 09:47:00,52.7,47.7,29.91,East,98,5.0,5.0,83,0.00,CLR,,0.28,WeatherDisplay:10.37,2013-02-24 14:47:00,
2013-02-24 09:52:00,53.0,47.3,29.92,NNW,334,3.5,3.5,81,0.00,CLR,,0.28,WeatherDisplay:10.37,2013-02-24 14:52:00,
2013-02-24 09:57:00,53.1,45.7,29.92,NNW,338,0.0,0.2,76,0.00,CLR,,0.28,WeatherDisplay:10.37,2013-02-24 14:57:00,
2013-02-24 10:02:00,53.4,45.7,29.92,SSE,160,1.1,1.1,75,0.00,CLR,,0.28,WeatherDisplay:10.37,2013-02-24 15:02:00,
2013-02-24 10:07:00,53.7,46.0,29.92,West,280,1.1,0.0,75,0.00,CLR,,0.28,WeatherDisplay:10.37,2013-02-24 15:07:00,
2013-02-24 10:12:00,54.1,46.0,29.93,WNW,293,3.5,3.5,74,0.00,CLR,,0.28,WeatherDisplay:10.37,2013-02-24 15:12:00,
2013-02-24 10:17:00,54.6,46.1,29.92,SSW,198,2.3,2.3,73,0.00,CLR,,0.28,WeatherDisplay:10.37,2013-02-24 15:17:00,
2013-02-24 10:22:00,54.9,45.7,29.92,SW,235,2.3,2.3,71,0.00,CLR,,0.28,WeatherDisplay:10.37,2013-02-24 15:22:00,
2013-02-24 10:27:00,55.0,45.8,29.92,NNW,342,1.1,1.1,71,0.00,CLR,,0.28,WeatherDisplay:10.37,2013-02-24 15:27:00,
2013-02-24 10:32:00,55.3,45.7,29.92,NNW,342,3.5,3.5,70,0.00,CLR,,0.28,WeatherDisplay:10.37,2013-02-24 15:32:00,
2013-02-24 10:37:00,55.3,44.9,29.92,NNW,342,2.3,2.3,68,0.00,CLR,,0.28,WeatherDisplay:10.37,2013-02-24 15:37:00,
2013-02-24 10:42:00,55.8,44.6,29.92,NNW,329,3.5,3.5,66,0.00,CLR,,0.28,WeatherDisplay:10.37,2013-02-24 15:42:00,
2013-02-24 10:47:00,55.7,42.9,29.92,NW,311,3.5,3.5,62,0.00,CLR,,0.28,WeatherDisplay:10.37,2013-02-24 15:47:00,
2013-02-24 10:52:00,55.5,43.5,29.92,West,269,3.5,3.5,64,0.00,CLR,,0.28,WeatherDisplay:10.37,2013-02-24 15:52:00,
2013-02-24 10:57:00,55.6,43.6,29.92,WNW,282,4.6,4.6,64,0.00,CLR,,0.28,WeatherDisplay:10.37,2013-02-24 15:57:00,
2013-02-24 11:02:00,55.7,43.7,29.92,NE,50,3.5,0.0,64,0.00,CLR,,0.28,WeatherDisplay:10.37,2013-02-24 16:02:00,
2013-02-24 11:07:00,56.3,43.9,29.92,NE,39,1.1,1.1,63,0.00,CLR,,0.28,WeatherDisplay:10.37,2013-02-24 16:07:00,
2013-02-24 11:12:00,56.9,43.6,29.92,WSW,248,1.1,1.1,61,0.00,CLR,,0.28,WeatherDisplay:10.37,2013-02-24 16:12:00,
2013-02-24 11:17:00,57.1,43.3,29.92,North,354,4.0,4.0,60,0.00,CLR,,0.28,WeatherDisplay:10.37,2013-02-24 16:17:00,
2013-02-24 11:22:00,57.6,43.4,29.92,NNW,342,4.6,4.6,59,0.00,CLR,,0.28,WeatherDisplay:10.37,2013-02-24 16:22:00,
2013-02-24 11:27:00,57.5,41.9,29.92,North,6,2.3,3.3,56,0.00,CLR,,0.28,WeatherDisplay:10.37,2013-02-24 16:27:00,
2013-02-24 11:32:00,57.8,43.6,29.92,NNW,344,3.5,3.5,59,0.00,CLR,,0.28,WeatherDisplay:10.37,2013-02-24 16:32:00,
2013-02-24 11:37:00,58.0,41.4,29.92,NW,304,4.6,4.6,54,0.00,CLR,,0.28,WeatherDisplay:10.37,2013-02-24 16:37:00,
2013-02-24 11:42:00,58.2,42.6,29.92,NNW,336,2.3,2.3,56,0.00,CLR,,0.28,WeatherDisplay:10.37,2013-02-24 16:42:00,
2013-02-24 11:47:00,58.6,42.0,29.92,SW,235,4.0,4.0,54,0.00,CLR,,0.28,WeatherDisplay:10.37,2013-02-24 16:47:00,
2013-02-24 11:52:00,59.0,43.3,29.91,SSE,161,1.1,1.1,56,0.00,CLR,,0.28,WeatherDisplay:10.37,2013-02-24 16:52:00,
2013-02-24 11:57:00,59.2,41.1,29.91,WSW,251,4.0,4.0,51,0.00,CLR,,0.28,WeatherDisplay:10.37,2013-02-24 16:57:00,
2013-02-24 12:02:00,59.1,42.5,29.91,NNE,30,4.0,4.0,54,0.00,CLR,,0.28,WeatherDisplay:10.37,2013-02-24 17:02:00,
2013-02-24 12:07:00,59.1,41.5,29.91,NW,316,2.3,2.3,52,0.00,CLR,,0.28,WeatherDisplay:10.37,2013-02-24 17:07:00,
2013-02-24 12:12:00,59.8,41.1,29.91,North,355,3.5,3.5,50,0.00,CLR,,0.28,WeatherDisplay:10.37,2013-02-24 17:12:00,
2013-02-24 12:17:00,60.0,40.2,29.91,SSE,148,3.5,3.5,48,0.00,CLR,,0.28,WeatherDisplay:10.37,2013-02-24 17:17:00,
2013-02-24 12:22:00,59.7,40.0,29.91,West,270,2.3,2.3,48,0.00,CLR,,0.28,WeatherDisplay:10.37,2013-02-24 17:22:00,
2013-02-24 12:28:00,60.1,41.4,29.91,NW,308,4.6,4.6,50,0.00,CLR,,0.28,WeatherDisplay:10.37,2013-02-24 17:28:00,
2013-02-24 12:33:00,60.6,40.8,29.91,NNE,27,4.6,4.6,48,0.00,CLR,,0.28,WeatherDisplay:10.37,2013-02-24 17:33:00,
2013-02-24 12:38:00,60.7,40.3,29.90,WNW,299,2.3,2.3,47,0.00,CLR,,0.28,WeatherDisplay:10.37,2013-02-24 17:38:00,
2013-02-24 12:43:00,60.7,39.2,29.90,NW,305,3.5,3.5,45,0.00,CLR,,0.28,WeatherDisplay:10.37,2013-02-24 17:43:00,
2013-02-24 12:48:00,60.7,40.3,29.90,West,264,4.6,4.6,47,0.00,CLR,,0.28,WeatherDisplay:10.37,2013-02-24 17:48:00,
2013-02-24 12:53:00,60.9,38.8,29.90,WNW,293,4.6,4.6,44,0.00,CLR,,0.28,WeatherDisplay:10.37,2013-02-24 17:53:00,
2013-02-24 12:58:00,61.0,40.1,29.90,WSW,242,1.1,1.1,46,0.00,CLR,,0.28,WeatherDisplay:10.37,2013-02-24 17:58:00,
2013-02-24 13:03:00,61.4,41.0,29.90,WNW,300,2.3,2.3,47,0.00,CLR,,0.28,WeatherDisplay:10.37,2013-02-24 18:03:00,
2013-02-24 13:08:00,61.7,40.7,29.89,NW,309,3.5,3.5,46,0.00,CLR,,0.28,WeatherDisplay:10.37,2013-02-24 18:08:00,
2013-02-24 13:13:00,62.0,39.8,29.89,WNW,284,9.2,9.2,44,0.00,CLR,,0.28,WeatherDisplay:10.37,2013-02-24 18:13:00,
2013-02-24 13:18:00,61.4,39.3,29.89,NNW,338,3.5,3.5,44,0.00,CLR,,0.28,WeatherDisplay:10.37,2013-02-24 18:18:00,
2013-02-24 13:23:00,61.3,38.6,29.89,NW,321,4.6,4.6,43,0.00,CLR,,0.28,WeatherDisplay:10.37,2013-02-24 18:23:00,
2013-02-24 13:28:00,61.7,39.0,29.88,West,269,5.8,5.8,43,0.00,CLR,,0.28,WeatherDisplay:10.37,2013-02-24 18:28:00,
2013-02-24 13:33:00,62.2,40.0,29.88,WSW,258,5.0,5.0,44,0.00,CLR,,0.28,WeatherDisplay:10.37,2013-02-24 18:33:00,
2013-02-24 13:38:00,62.5,39.1,29.88,NE,40,3.5,3.5,42,0.00,CLR,,0.28,WeatherDisplay:10.37,2013-02-24 18:38:00,
2013-02-24 13:43:00,62.7,38.6,29.88,SW,236,3.5,3.5,41,0.00,CLR,,0.28,WeatherDisplay:10.37,2013-02-24 18:43:00,
2013-02-24 13:48:00,62.6,38.6,29.88,NW,321,2.3,2.3,41,0.00,CLR,,0.28,WeatherDisplay:10.37,2013-02-24 18:48:00,
2013-02-24 13:53:00,62.9,37.5,29.88,NW,309,3.5,3.5,39,0.00,CLR,,0.28,WeatherDisplay:10.37,2013-02-24 18:53:00,
2013-02-24 13:58:00,63.1,37.7,29.88,WNW,295,3.5,3.5,39,0.00,CLR,,0.28,WeatherDisplay:10.37,2013-02-24 18:58:00,
2013-02-24 14:03:00,62.9,37.5,29.88,SW,236,1.1,1.1,39,0.00,CLR,,0.28,WeatherDisplay:10.37,2013-02-24 19:03:00,
2013-02-24 14:08:00,62.8,36.1,29.88,North,349,5.8,5.8,37,0.00,CLR,,0.28,WeatherDisplay:10.37,2013-02-24 19:08:00,
2013-02-24 14:13:00,63.2,37.8,29.88,SE,136,3.5,3.5,39,0.00,CLR,,0.28,WeatherDisplay:10.37,2013-02-24 19:13:00,
2013-02-24 14:18:00,63.5,39.4,29.88,North,354,3.0,3.0,41,0.00,CLR,,0.28,WeatherDisplay:10.37,2013-02-24 19:18:00,
2013-02-24 14:23:00,63.2,37.8,29.87,SW,219,3.5,3.5,39,0.00,CLR,,0.28,WeatherDisplay:10.37,2013-02-24 19:23:00,
2013-02-24 14:28:00,63.0,38.9,29.87,West,271,3.5,3.5,41,0.00,CLR,,0.28,WeatherDisplay:10.37,2013-02-24 19:28:00,
2013-02-24 14:33:00,63.2,39.7,29.87,West,263,2.3,2.3,42,0.00,CLR,,0.28,WeatherDisplay:10.37,2013-02-24 19:33:00,
2013-02-24 14:38:00,63.7,39.5,29.87,WSW,239,2.3,2.3,41,0.00,CLR,,0.28,WeatherDisplay:10.37,2013-02-24 19:38:00,
2013-02-24 14:43:00,64.1,39.3,29.87,North,352,2.3,2.3,40,0.00,CLR,,0.28,WeatherDisplay:10.37,2013-02-24 19:43:00,
2013-02-24 14:48:00,64.6,40.4,29.87,ENE,62,3.5,3.5,41,0.00,CLR,,0.28,WeatherDisplay:10.37,2013-02-24 19:48:00,
2013-02-24 14:53:00,64.5,39.6,29.88,West,278,3.5,3.5,40,0.00,CLR,,0.28,WeatherDisplay:10.37,2013-02-24 19:53:00,
2013-02-24 14:58:00,64.4,38.2,29.87,North,1,2.3,2.3,38,0.00,CLR,,0.28,WeatherDisplay:10.37,2013-02-24 19:58:00,
2013-02-24 15:03:00,64.2,38.0,29.87,West,273,5.8,5.8,38,0.00,CLR,,0.28,WeatherDisplay:10.37,2013-02-24 20:03:00,
2013-02-24 15:08:00,64.1,38.6,29.87,WNW,295,3.5,3.5,39,0.00,CLR,,0.28,WeatherDisplay:10.37,2013-02-24 20:08:00,
2013-02-24 15:13:00,64.3,39.4,29.87,NNE,30,3.5,3.5,40,0.00,CLR,,0.28,WeatherDisplay:10.37,2013-02-24 20:13:00,
2013-02-24 15:18:00,64.4,39.5,29.87,WSW,243,3.5,3.5,40,0.00,CLR,,0.28,WeatherDisplay:10.37,2013-02-24 20:18:00,
2013-02-24 15:23:00,64.2,38.0,29.87,East,91,3.5,3.5,38,0.00,CLR,,0.28,WeatherDisplay:10.37,2013-02-24 20:23:00,
2013-02-24 15:28:00,64.6,38.4,29.87,West,260,3.5,3.5,38,0.00,CLR,,0.28,WeatherDisplay:10.37,2013-02-24 20:28:00,
2013-02-24 15:33:00,64.5,39.0,29.87,West,276,3.5,3.5,39,0.00,CLR,,0.28,WeatherDisplay:10.37,2013-02-24 20:33:00,
2013-02-24 15:38:00,64.6,38.4,29.88,NW,312,3.5,3.5,38,0.00,CLR,,0.28,WeatherDisplay:10.37,2013-02-24 20:38:00,
2013-02-24 15:43:00,64.4,37.5,29.88,NW,318,4.6,4.6,37,0.00,CLR,,0.28,WeatherDisplay:10.37,2013-02-24 20:43:00,
2013-02-24 15:48:00,64.3,38.1,29.88,North,351,2.3,2.3,38,0.00,CLR,,0.28,WeatherDisplay:10.37,2013-02-24 20:48:00,
2013-02-24 15:53:00,64.6,37.0,29.88,North,356,1.1,1.1,36,0.00,CLR,,0.28,WeatherDisplay:10.37,2013-02-24 20:53:00,
2013-02-24 15:58:00,64.9,37.3,29.88,West,267,2.3,2.3,36,0.00,CLR,,0.28,WeatherDisplay:10.37,2013-02-24 20:58:00,
2013-02-24 16:03:00,64.6,37.0,29.88,SW,236,3.5,3.5,36,0.00,CLR,,0.28,WeatherDisplay:10.37,2013-02-24 21:03:00,
2013-02-24 16:08:00,64.2,38.0,29.88,NNW,336,4.6,4.6,38,0.00,CLR,,0.28,WeatherDisplay:10.37,2013-02-24 21:08:00,
2013-02-24 16:13:00,64.6,37.0,29.88,NNW,347,3.5,3.5,36,0.00,CLR,,0.28,WeatherDisplay:10.37,2013-02-24 21:13:00,
2013-02-24 16:18:00,65.0,36.7,29.88,SW,217,5.8,5.8,35,0.00,CLR,,0.28,WeatherDisplay:10.37,2013-02-24 21:18:00,
2013-02-24 16:23:00,64.5,36.2,29.88,NNW,328,2.3,2.3,35,0.00,CLR,,0.28,WeatherDisplay:10.37,2013-02-24 21:23:00,
2013-02-24 16:28:00,64.3,35.3,29.89,WNW,288,3.5,3.5,34,0.00,CLR,,0.28,WeatherDisplay:10.37,2013-02-24 21:28:00,
2013-02-24 16:33:00,63.6,35.4,29.89,NNW,342,3.5,3.5,35,0.00,CLR,,0.28,WeatherDisplay:10.37,2013-02-24 21:33:00,
2013-02-24 16:38:00,63.0,35.6,29.89,West,276,1.1,1.1,36,0.00,CLR,,0.28,WeatherDisplay:10.37,2013-02-24 21:38:00,
2013-02-24 16:43:00,62.4,34.4,29.89,WNW,295,3.5,3.5,35,0.00,CLR,,0.28,WeatherDisplay:10.37,2013-02-24 21:43:00,
2013-02-24 16:48:00,61.9,35.3,29.89,WNW,300,3.5,3.5,37,0.00,CLR,,0.28,WeatherDisplay:10.37,2013-02-24 21:48:00,
2013-02-24 16:53:00,61.6,35.1,29.89,West,274,3.5,3.5,37,0.00,CLR,,0.28,WeatherDisplay:10.37,2013-02-24 21:53:00,
2013-02-24 16:58:00,61.3,36.1,29.89,SW,234,1.1,0.0,39,0.00,CLR,,0.28,WeatherDisplay:10.37,2013-02-24 21:58:00,
2013-02-24 17:03:00,61.0,35.8,29.89,West,274,2.3,2.3,39,0.00,CLR,,0.28,WeatherDisplay:10.37,2013-02-24 22:03:00,
2013-02-24 17:08:00,60.7,36.2,29.89,WNW,294,1.0,1.0,40,0.00,CLR,,0.28,WeatherDisplay:10.37,2013-02-24 22:08:00,
2013-02-24 17:13:00,60.5,36.0,29.89,WSW,245,1.1,1.1,40,0.00,CLR,,0.28,WeatherDisplay:10.37,2013-02-24 22:13:00,
2013-02-24 17:18:00,60.4,35.9,29.89,NW,312,1.1,1.1,40,0.00,CLR,,0.28,WeatherDisplay:10.37,2013-02-24 22:18:00,
2013-02-24 17:23:00,60.2,35.8,29.89,WNW,302,0.0,0.0,40,0.00,CLR,,0.28,WeatherDisplay:10.37,2013-02-24 22:23:00,
2013-02-24 17:28:00,60.0,35.6,29.90,WSW,243,1.1,0.0,40,0.00,CLR,,0.28,WeatherDisplay:10.37,2013-02-24 22:28:00,
2013-02-24 17:33:00,59.9,35.5,29.90,NW,313,0.0,0.0,40,0.00,CLR,,0.28,WeatherDisplay:10.37,2013-02-24 22:33:00,
2013-02-24 17:38:00,59.6,33.9,29.90,West,269,5.0,5.0,38,0.00,CLR,,0.28,WeatherDisplay:10.37,2013-02-24 22:38:00,
2013-02-24 17:43:00,59.4,33.1,29.90,NW,309,1.1,1.2,37,0.00,CLR,,0.28,WeatherDisplay:10.37,2013-02-24 22:43:00,
2013-02-24 17:48:00,59.1,31.4,29.91,WNW,283,3.5,3.5,35,0.00,CLR,,0.28,WeatherDisplay:10.37,2013-02-24 22:48:00,
2013-02-24 17:53:00,58.9,30.6,29.91,WSW,249,2.3,2.3,34,0.00,CLR,,0.28,WeatherDisplay:10.37,2013-02-24 22:53:00,
2013-02-24 17:58:00,58.5,30.2,29.91,NNW,332,1.1,1.3,34,0.00,CLR,,0.28,WeatherDisplay:10.37,2013-02-24 22:58:00,
2013-02-24 18:03:00,58.2,30.7,29.91,West,259,1.1,1.1,35,0.00,CLR,,0.28,WeatherDisplay:10.37,2013-02-24 23:03:00,
2013-02-24 18:08:00,58.0,29.8,29.91,NNW,345,1.1,1.1,34,0.00,CLR,,0.28,WeatherDisplay:10.37,2013-02-24 23:08:00,
2013-02-24 18:13:00,57.6,30.1,29.92,NNW,336,0.0,0.0,35,0.00,CLR,,0.28,WeatherDisplay:10.37,2013-02-24 23:13:00,
2013-02-24 18:18:00,57.2,30.5,29.92,SW,236,1.1,0.0,36,0.00,CLR,,0.28,WeatherDisplay:10.37,2013-02-24 23:18:00,
2013-02-24 18:23:00,56.7,31.4,29.92,SW,236,0.0,0.0,38,0.00,CLR,,0.28,WeatherDisplay:10.37,2013-02-24 23:23:00,
2013-02-24 18:29:00,56.0,30.7,29.92,SW,236,0.0,0.0,38,0.00,CLR,,0.28,WeatherDisplay:10.37,2013-02-24 23:29:00,
2013-02-24 18:34:00,55.4,32.7,29.93,WSW,238,0.0,0.0,42,0.00,CLR,,0.28,WeatherDisplay:10.37,2013-02-24 23:34:00,
2013-02-24 18:39:00,54.8,32.1,29.93,WSW,238,0.0,0.0,42,0.00,CLR,,0.28,WeatherDisplay:10.37,2013-02-24 23:39:00,
2013-02-24 18:44:00,54.1,33.2,29.93,WSW,249,0.0,0.0,45,0.00,CLR,,0.28,WeatherDisplay:10.37,2013-02-24 23:44:00,
2013-02-24 18:49:00,53.2,32.4,29.93,WSW,249,0.0,0.0,45,0.00,CLR,,0.28,WeatherDisplay:10.37,2013-02-24 23:49:00,
2013-02-24 18:54:00,52.4,33.3,29.93,WSW,249,0.0,0.0,48,0.00,CLR,,0.28,WeatherDisplay:10.37,2013-02-24 23:54:00,
2013-02-24 18:59:00,51.5,34.0,29.94,WSW,249,0.0,0.0,51,0.00,CLR,,0.28,WeatherDisplay:10.37,2013-02-24 23:59:00,
2013-02-24 19:04:00,50.6,33.1,29.94,WSW,249,0.0,0.0,51,0.00,CLR,,0.28,WeatherDisplay:10.37,2013-02-25 00:04:00,
2013-02-24 19:09:00,50.0,33.5,29.94,WSW,249,0.0,0.0,53,0.00,CLR,,0.28,WeatherDisplay:10.37,2013-02-25 00:09:00,
2013-02-24 19:14:00,49.5,33.1,29.94,WSW,249,0.0,0.0,53,0.00,CLR,,0.28,WeatherDisplay:10.37,2013-02-25 00:14:00,
2013-02-24 19:19:00,49.1,33.2,29.94,WSW,249,0.0,0.0,54,0.00,CLR,,0.28,WeatherDisplay:10.37,2013-02-25 00:19:00,
2013-02-24 19:24:00,48.7,33.7,29.95,WSW,249,0.0,0.0,56,0.00,CLR,,0.28,WeatherDisplay:10.37,2013-02-25 00:24:00,
2013-02-24 19:29:00,48.3,33.8,29.95,WSW,249,0.0,0.0,57,0.00,CLR,,0.28,WeatherDisplay:10.37,2013-02-25 00:29:00,
2013-02-24 19:34:00,47.9,33.4,29.95,WSW,249,0.0,0.0,57,0.00,CLR,,0.28,WeatherDisplay:10.37,2013-02-25 00:34:00,
2013-02-24 19:39:00,47.4,34.2,29.95,WSW,249,0.0,0.0,60,0.00,CLR,,0.28,WeatherDisplay:10.37,2013-02-25 00:39:00,
2013-02-24 19:44:00,46.9,34.1,29.96,WSW,249,0.0,0.0,61,0.00,CLR,,0.28,WeatherDisplay:10.37,2013-02-25 00:44:00,
2013-02-24 19:49:00,46.3,34.0,29.96,WSW,249,0.0,0.0,62,0.00,CLR,,0.28,WeatherDisplay:10.37,2013-02-25 00:49:00,
2013-02-24 19:54:00,45.7,34.2,29.96,WSW,249,0.0,0.0,64,0.00,CLR,,0.28,WeatherDisplay:10.37,2013-02-25 00:54:00,
2013-02-24 19:59:00,45.6,34.5,29.96,WSW,249,0.0,0.0,65,0.00,CLR,,0.28,WeatherDisplay:10.37,2013-02-25 00:59:00,
2013-02-24 20:04:00,45.4,33.9,29.97,WSW,249,0.0,0.0,64,0.00,CLR,,0.28,WeatherDisplay:10.37,2013-02-25 01:04:00,
2013-02-24 20:09:00,45.3,35.0,29.97,WSW,248,0.0,0.0,67,0.00,CLR,,0.28,WeatherDisplay:10.37,2013-02-25 01:09:00,
2013-02-24 20:14:00,45.3,34.2,29.97,WSW,248,0.0,0.0,65,0.00,CLR,,0.28,WeatherDisplay:10.37,2013-02-25 01:14:00,
2013-02-24 20:19:00,45.1,34.4,29.97,WSW,248,0.0,0.0,66,0.00,CLR,,0.28,WeatherDisplay:10.37,2013-02-25 01:19:00,
2013-02-24 20:24:00,44.7,33.6,29.97,WSW,247,0.0,0.0,65,0.00,CLR,,0.28,WeatherDisplay:10.37,2013-02-25 01:24:00,
2013-02-24 20:29:00,44.7,33.6,29.98,WSW,248,0.0,0.0,65,0.00,CLR,,0.28,WeatherDisplay:10.37,2013-02-25 01:29:00,
2013-02-24 20:34:00,44.3,34.0,29.98,WSW,248,0.0,0.0,67,0.00,CLR,,0.28,WeatherDisplay:10.37,2013-02-25 01:34:00,
2013-02-24 20:39:00,44.0,34.5,29.99,ESE,121,2.0,2.0,69,0.00,CLR,,0.28,WeatherDisplay:10.37,2013-02-25 01:39:00,
2013-02-24 20:44:00,43.9,34.7,29.99,West,262,0.0,0.0,70,0.00,CLR,,0.28,WeatherDisplay:10.37,2013-02-25 01:44:00,
2013-02-24 20:49:00,43.9,34.4,29.99,West,262,0.0,0.0,69,0.00,CLR,,0.28,WeatherDisplay:10.37,2013-02-25 01:49:00,
2013-02-24 20:54:00,43.9,33.6,30.00,West,262,0.0,0.0,67,0.00,CLR,,0.28,WeatherDisplay:10.37,2013-02-25 01:54:00,
2013-02-24 20:59:00,43.5,33.6,29.99,West,262,0.0,0.0,68,0.00,CLR,,0.28,WeatherDisplay:10.37,2013-02-25 01:59:00,
2013-02-24 21:04:00,43.1,33.6,30.00,West,262,0.0,0.0,69,0.00,CLR,,0.28,WeatherDisplay:10.37,2013-02-25 02:04:00,
2013-02-24 21:09:00,42.9,34.5,29.99,West,262,0.0,0.0,72,0.00,CLR,,0.28,WeatherDisplay:10.37,2013-02-25 02:09:00,
2013-02-24 21:14:00,42.5,33.4,30.00,West,262,0.0,0.0,70,0.00,CLR,,0.28,WeatherDisplay:10.37,2013-02-25 02:14:00,
2013-02-24 21:19:00,42.1,33.0,30.00,West,262,0.0,0.0,70,0.00,CLR,,0.28,WeatherDisplay:10.37,2013-02-25 02:19:00,
2013-02-24 21:24:00,41.7,33.7,30.00,West,262,0.0,0.0,73,0.00,CLR,,0.28,WeatherDisplay:10.37,2013-02-25 02:24:00,
2013-02-24 21:29:00,41.4,33.4,30.00,West,262,0.0,0.0,73,0.00,CLR,,0.28,WeatherDisplay:10.37,2013-02-25 02:29:00,
2013-02-24 21:34:00,41.2,34.2,30.00,West,261,0.0,0.0,76,0.00,CLR,,0.28,WeatherDisplay:10.37,2013-02-25 02:34:00,
2013-02-24 21:39:00,41.0,34.3,30.00,West,262,0.0,0.0,77,0.00,CLR,,0.28,WeatherDisplay:10.37,2013-02-25 02:39:00,
2013-02-24 21:44:00,40.7,34.0,30.01,West,262,0.0,0.0,77,0.00,CLR,,0.28,WeatherDisplay:10.37,2013-02-25 02:44:00,
2013-02-24 21:49:00,40.5,34.8,30.00,West,262,0.0,0.0,80,0.00,CLR,,0.28,WeatherDisplay:10.37,2013-02-25 02:49:00,
2013-02-24 21:54:00,40.4,34.7,30.00,West,262,0.0,0.0,80,0.00,CLR,,0.28,WeatherDisplay:10.37,2013-02-25 02:54:00,
2013-02-24 21:59:00,40.1,34.4,30.00,West,262,0.0,0.0,80,0.00,CLR,,0.28,WeatherDisplay:10.37,2013-02-25 02:59:00,
2013-02-24 22:04:00,39.7,34.3,30.00,West,262,0.0,0.0,81,0.00,CLR,,0.28,WeatherDisplay:10.37,2013-02-25 03:04:00,
2013-02-24 22:09:00,39.5,34.5,30.00,West,262,0.0,0.0,82,0.00,CLR,,0.28,WeatherDisplay:10.37,2013-02-25 03:09:00,
2013-02-24 22:14:00,39.5,34.5,30.00,West,262,0.0,0.0,82,0.00,CLR,,0.28,WeatherDisplay:10.37,2013-02-25 03:14:00,
2013-02-24 22:19:00,39.4,34.4,30.00,West,262,0.0,0.0,82,0.00,CLR,,0.28,WeatherDisplay:10.37,2013-02-25 03:19:00,
2013-02-24 22:24:00,39.1,33.8,30.00,West,262,0.0,0.0,81,0.00,CLR,,0.28,WeatherDisplay:10.37,2013-02-25 03:24:00,
2013-02-24 22:29:00,38.7,33.7,30.00,West,262,0.0,0.0,82,0.00,CLR,,0.28,WeatherDisplay:10.37,2013-02-25 03:29:00,
2013-02-24 22:34:00,38.4,33.7,30.01,West,262,0.0,0.0,83,0.00,CLR,,0.28,WeatherDisplay:10.37,2013-02-25 03:34:00,
2013-02-24 22:39:00,38.1,33.7,30.01,West,262,0.0,0.0,84,0.00,CLR,,0.28,WeatherDisplay:10.37,2013-02-25 03:39:00,
2013-02-24 22:44:00,38.0,34.2,30.01,West,262,0.0,0.0,86,0.00,CLR,,0.28,WeatherDisplay:10.37,2013-02-25 03:44:00,
2013-02-24 22:49:00,38.1,34.6,30.01,West,262,0.0,0.0,87,0.00,CLR,,0.28,WeatherDisplay:10.37,2013-02-25 03:49:00,
2013-02-24 22:54:00,38.1,34.6,30.01,West,262,0.0,0.0,87,0.00,CLR,,0.28,WeatherDisplay:10.37,2013-02-25 03:54:00,
2013-02-24 23:00:00,38.0,34.2,30.02,West,262,0.0,0.0,86,0.00,CLR,,0.28,WeatherDisplay:10.37,2013-02-25 04:00:00,
2013-02-24 23:05:00,37.9,34.4,30.02,West,262,0.0,0.0,87,0.00,CLR,,0.28,WeatherDisplay:10.37,2013-02-25 04:05:00,
2013-02-24 23:10:00,37.7,34.2,30.02,West,262,0.0,0.0,87,0.00,CLR,,0.28,WeatherDisplay:10.37,2013-02-25 04:10:00,
2013-02-24 23:15:00,37.4,33.6,30.02,West,262,0.0,0.0,86,0.00,CLR,,0.28,WeatherDisplay:10.37,2013-02-25 04:15:00,
2013-02-24 23:20:00,37.1,33.9,30.02,West,262,0.0,0.0,88,0.00,CLR,,0.28,WeatherDisplay:10.37,2013-02-25 04:20:00,
2013-02-24 23:25:00,37.1,33.9,30.02,West,262,0.0,0.0,88,0.00,CLR,,0.28,WeatherDisplay:10.37,2013-02-25 04:25:00,
2013-02-24 23:30:00,36.7,33.5,30.03,West,262,0.0,0.0,88,0.00,CLR,,0.28,WeatherDisplay:10.37,2013-02-25 04:30:00,
2013-02-24 23:35:00,36.5,33.3,30.03,West,262,0.0,0.0,88,0.00,CLR,,0.28,WeatherDisplay:10.37,2013-02-25 04:35:00,
2013-02-24 23:40:00,36.2,33.0,30.03,West,262,0.0,0.0,88,0.00,CLR,,0.28,WeatherDisplay:10.37,2013-02-25 04:40:00,
2013-02-24 23:45:00,35.7,32.5,30.03,West,262,0.0,0.0,88,0.00,CLR,,0.28,WeatherDisplay:10.37,2013-02-25 04:45:00,
2013-02-24 23:50:00,35.6,33.0,30.03,West,262,0.0,0.0,90,0.00,CLR,,0.28,WeatherDisplay:10.37,2013-02-25 04:50:00,
2013-02-24 23:55:00,35.7,33.3,30.03,West,262,0.0,0.0,91,0.00,CLR,,0.28,WeatherDisplay:10.37,2013-02-25 04:55:00,